LIPXLIRQ

Guest
Details From LIPX - VILLAFRANCA
To LIRQ - Firenze
Flight Number -
Tags generated
Created
Modified
Stats Distance 98 nm / 182 km
Max Altitude 11,400 ft / 3,475 m
Waypoints 3
Social Downloads 10
Likes 0
Share

Download

Looking for another format? Having issues loading an existing format? Contact us
Advertisement - Login to hide

Notes

Basic altitude profile: - Ascent Rate: 2500ft/min - Ascent Speed: 250kts - Cruise Altitude: 35000ft - Cruise Speed: 420kts - Descent Rate: 1500ft/min - Descent Speed: 250kts Options: - Use NATs: yes - Use PACOTS: yes - Use low airways: yes - Use high airways: yes

Route

LIPX KREVA LIRQ

ID Type Via Altitude (ft/m) Position (lat/lon) Dist (leg/tot) Name
O LIPX APT - 0 / 0 45.39694 / 10.89042 - / 0 nm VILLAFRANCA
KREVA FIX - 11,400 / 3,475 44.77444 / 11.23500 40 / 40 nm
O LIRQ APT - 0 / 0 43.80998 / 11.20512 57 / 98 nm Firenze

Altitude Profile

Advertisement - Login to hide

LIPX

Details ICAO LIPX (VRN)
Name Verona-Villafranca "Valerio Catullo"
Region Italy
Timezone Europe/Rome (UTC+2.0)
Stats Elevation 236 ft / 72 m (AMSL)
Location 45.397000° 10.890300°
Runways 1
Magnetic Variation 3.249° E

METAR

LIPX 111220Z 07007KT 040V110 9999 -RA SCT060 BKN080 16/12 Q1010 RERA

Decode

TAF

Not found

Departure Runways

ID Width Length Bearing (true/mag) Surface Threshold Overrun Markings Lighting
04 148 ft / 45 m 10,074 ft / 3,071 m 45.59° / 42.34° ASPHALT 194 ft / 59 m 797 ft / 243 m PREC-APP CENTERLINE EDGE THRESHOLD ALSF-II TDZ REIL-OMNI
22 148 ft / 45 m 10,074 ft / 3,071 m 225.61° / 222.36° ASPHALT 1,339 ft / 408 m 184 ft / 56 m PREC-APP CENTERLINE EDGE THRESHOLD SALS REIL-OMNI

LIRQ

Details ICAO LIRQ (FLR)
Name Firenze-Peretola "Amerigo Vespucci"
Region Italy
Timezone Europe/Rome (UTC+2.0)
Stats Elevation 142 ft / 43 m (AMSL)
Location 43.810000° 11.205100°
Runways 1
Magnetic Variation 3.249° E

METAR

LIRQ 111220Z VRB04KT 9999 -RA SCT050 18/14 Q1011

Decode

TAF

TAF LIRQ 111100Z 1112/1212 VRB05KT 9999 FEW040 TEMPO 1112/1118 SHRA BECMG 1118/1120 VRB05KT

Decode

Destination Runways

ID Width Length Bearing (true/mag) Surface Threshold Overrun Markings Lighting
05 98 ft / 30 m 5,123 ft / 1,561 m 48.10° / 44.85° ASPHALT 338 ft / 103 m 0 ft / 0 m PREC-APP CENTERLINE EDGE THRESHOLD SSALF TDZ REIL-OMNI
23 98 ft / 30 m 5,123 ft / 1,561 m 228.11° / 224.86° ASPHALT 1,903 ft / 580 m 0 ft / 0 m VISUAL CENTERLINE EDGE THRESHOLD REIL-OMNI

Approach Navaids

Runway Type Ident Frequency Range Bearing (true/mag) Slope Elevation
05 DME IFZ 110.30 MHz 18 nm / 33 km - - 144 ft / 44 m (AMSL)
05 LOC-ILS IFZ 110.30 MHz 18 nm / 33 km 48.10° / 44.85 ° - 131 ft / 40 m (AMSL)
05 GS IFZ 110.30 MHz 10 nm / 19 km 47.00° / 43.75 ° 3.00° 144 ft / 44 m (AMSL)

Popular Alternatives